CAG weather

Cagliari Elmas Airport
Cagliari, Sardinia, Italy

Public forecast

Using degrees Celsius for public forecast. Weather courtesy of forecast.io.

METAR (pilot weather report)

Retrieved 2019/06/26 00:50 UTC (50 minutes ago):

LIEE 260050Z 30003KT CAVOK 22/19 Q1019

TAF (pilot weather forecast)

Forecast is more than 12 hours old.

Retrieved 2019/06/25 00:00 UTC (1 day ago):

TAF LIEE 252300Z 2600/2624 VRB04KT CAVOK BECMG 2608/2610 16012KT BECMG 2617/2619 VRB04KT